Hunt, Arkansas
Current Conditions -  °F | °C
As of 5:53 PM on Saturday 22 Nov 2014 (Local Time) from KRUE Reporting Station
Haze Haze  
Wind Chill: 54°   Ceiling: 4900
Heat Index: 54°   Visibility: 5mi
Dew Point: 53°   Wind: 0mph
Humidity: 97%   Direction: NA
Pressure: 29.98"   Gusts: NA
Location:  35.4189°N, 93.6161°W
Report Text: KRUE 222353Z AUTO 00000KT 5SM BR BKN049 12/12 A2998 RMK AO2 SLP149 60010 T01220117 10150 20117 58005
Loading
Personal Weather Stations






























Interactive Weather Map New forecast layout! Learn more

10-Day Weather Forecast

Advertisements
Track Severe Weather on mobile